Pamlico — WX6900 — position and weather

sailwx.info

Track history (hours):
 
Tides and Currents Weather Stations Pressure Air Temp Water Temp Dewpoint Dewpoint Depression Visibility Wind Speed Wind Dir Waves Ship Positions

Pamlico

Owner: PCS Phosphate, AURORA, NC. More information available from US FCC via Universal Licensing System and Coast Guard Vessel Documentation Center.

Last reported at 2017-Dec-11 04:26 UTC. Time now 2017-Dec-13 15:00 UTC.
Position N 34°59' W 076°42'.

Length 30 m; draft 2 m.

Type: Tug. MMSI: 367361220.

Date/timePositionNaut miles runAvg speedWind from/ knotsBaromVisibWave heightAir tempDewpointWater temp
2017-Dec-11 04:26N 34°59' W 076°42'3 6.9
2017-Dec-11 03:57N 34°56' W 076°39'3 6.2
2017-Dec-11 03:30N 34°54' W 076°41'3 5.5
2017-Dec-11 03:00N 34°51' W 076°41'3 5.4
2017-Dec-11 02:31N 34°48' W 076°41'3 5.7
2017-Dec-11 02:01N 34°46' W 076°40'2 4.9
2017-Dec-11 01:30N 34°43' W 076°42'0 0.1
2017-Dec-11 01:00N 34°43' W 076°42'0 0.0
2017-Dec-11 00:30N 34°43' W 076°42'2 4.1
2017-Dec-11 00:01N 34°45' W 076°41'3 6.3
2017-Dec-10 23:30N 34°48' W 076°41'3 6.1
2017-Dec-10 23:01N 34°51' W 076°41'3 5.1
2017-Dec-10 22:26N 34°54' W 076°41'4 0.2
2017-Dec-09 20:09N 34°58' W 076°42'1 7.1
2017-Dec-09 20:00N 34°58' W 076°41'3 6.6
2017-Dec-09 19:30N 34°54' W 076°40'4 7.2
2017-Dec-09 19:01N 34°51' W 076°41'4 8.2
2017-Dec-09 18:30N 34°47' W 076°41'3 6.9
2017-Dec-09 18:00N 34°43' W 076°42'0 0.2
2017-Dec-09 17:30N 34°43' W 076°42'0 0.0
2017-Dec-09 17:01N 34°43' W 076°42'2 4.3
2017-Dec-09 16:30N 34°45' W 076°40'3 5.2
2017-Dec-09 16:01N 34°48' W 076°41'3 6.0
2017-Dec-09 15:30N 34°51' W 076°41'3 5.9
2017-Dec-09 14:56N 34°54' W 076°41'  
2017-Dec-04 10:11N 34°56' W 076°39'1 7.1
2017-Dec-04 10:00N 34°55' W 076°40'3 5.6
2017-Dec-04 09:30N 34°52' W 076°42'3 5.5
2017-Dec-04 09:00N 34°50' W 076°41'3 5.6
2017-Dec-04 08:31N 34°47' W 076°41'3 6.8
2017-Dec-04 08:00N 34°44' W 076°42'0 0.4
2017-Dec-04 07:31N 34°43' W 076°42'0 0.0
2017-Dec-04 07:00N 34°43' W 076°42'0 0.1
2017-Dec-04 06:31N 34°43' W 076°42'0 0.0
2017-Dec-04 06:00N 34°43' W 076°42'2 3.8
2017-Dec-04 05:31N 34°45' W 076°41'3 6.5
2017-Dec-04 05:00N 34°48' W 076°41'3 6.4
2017-Dec-04 04:30N 34°51' W 076°41'3 5.5
2017-Dec-04 04:00N 34°54' W 076°41'3 5.2
2017-Dec-04 03:28N 34°57' W 076°40'1 0.0
2017-Dec-02 03:15N 34°57' W 076°41'2 6.7
2017-Dec-02 02:57N 34°56' W 076°39'2 5.4
2017-Dec-02 02:30N 34°54' W 076°41'2 4.4
2017-Dec-02 02:01N 34°52' W 076°41'3 6.0
2017-Dec-02 01:30N 34°49' W 076°41'3 6.0
2017-Dec-02 01:00N 34°46' W 076°41'3 5.2
2017-Dec-02 00:30N 34°43' W 076°42'0 0.7
2017-Dec-02 00:01N 34°43' W 076°42'0 0.7
2017-Dec-01 23:31N 34°43' W 076°42'0 0.0
2017-Dec-01 23:00N 34°43' W 076°42'0 0.0
2017-Dec-01 22:30N 34°43' W 076°42'0 0.0
2017-Dec-01 22:01N 34°43' W 076°42'0 0.0
2017-Dec-01 21:30N 34°43' W 076°42'0 0.0
2017-Dec-01 21:01N 34°43' W 076°42'0 0.0
2017-Dec-01 20:30N 34°43' W 076°42'0 0.0
2017-Dec-01 20:00N 34°43' W 076°42'0 0.0
2017-Dec-01 19:31N 34°43' W 076°42'0 0.0
2017-Dec-01 19:00N 34°43' W 076°42'0 0.0
2017-Dec-01 18:31N 34°43' W 076°42'0 0.0
2017-Dec-01 18:01N 34°43' W 076°42'0 0.0
2017-Dec-01 17:30N 34°43' W 076°42'0 0.0
2017-Dec-01 17:00N 34°43' W 076°42'0 0.0
2017-Dec-01 16:30N 34°43' W 076°42'0 0.0
2017-Dec-01 16:00N 34°43' W 076°42'0 0.0
2017-Dec-01 15:30N 34°43' W 076°42'0 0.0
2017-Dec-01 15:00N 34°43' W 076°42'0 0.0
2017-Dec-01 14:30N 34°43' W 076°42'1 1.3
2017-Dec-01 14:00N 34°43' W 076°41'1 1.3
2017-Dec-01 13:30N 34°43' W 076°42'0 0.0
2017-Dec-01 13:00N 34°43' W 076°42'0 0.0
2017-Dec-01 12:30N 34°43' W 076°42'0 0.0
2017-Dec-01 12:00N 34°43' W 076°42'0 0.0
2017-Dec-01 11:30N 34°43' W 076°42'0 0.0
2017-Dec-01 11:00N 34°43' W 076°42'0 0.0
2017-Dec-01 10:30N 34°43' W 076°42'0 0.0
2017-Dec-01 10:00N 34°43' W 076°42'0 0.0
2017-Dec-01 09:30N 34°43' W 076°42'1 1.1
2017-Dec-01 09:00N 34°44' W 076°41'3 6.0
2017-Dec-01 08:30N 34°47' W 076°41'4 7.2
2017-Dec-01 08:00N 34°50' W 076°41'4 7.2
2017-Dec-01 07:30N 34°54' W 076°41'17 6.6
2017-Dec-01 04:52N 35°10' W 076°31'  
Track history (hours):
 
Tides and Currents Weather Stations Pressure Air Temp Water Temp Dewpoint Dewpoint Depression Visibility Wind Speed Wind Dir Waves Ship Positions

Pamlico

Owner: PCS Phosphate, AURORA, NC. More information available from US FCC via Universal Licensing System and Coast Guard Vessel Documentation Center.

Last reported at 2017-Dec-11 04:26 UTC. Time now 2017-Dec-13 15:00 UTC.
Position N 34°59' W 076°42'.

Length 30 m; draft 2 m.

Type: Tug. MMSI: 367361220.

Date/timePositionNaut miles runAvg speedWind from/ knotsBaromVisibWave heightAir tempDewpointWater temp
2017-Dec-11 04:26N 34°59' W 076°42'3 6.9
2017-Dec-11 03:57N 34°56' W 076°39'3 6.2
2017-Dec-11 03:30N 34°54' W 076°41'3 5.5
2017-Dec-11 03:00N 34°51' W 076°41'3 5.4
2017-Dec-11 02:31N 34°48' W 076°41'3 5.7
2017-Dec-11 02:01N 34°46' W 076°40'2 4.9
2017-Dec-11 01:30N 34°43' W 076°42'0 0.1
2017-Dec-11 01:00N 34°43' W 076°42'0 0.0
2017-Dec-11 00:30N 34°43' W 076°42'2 4.1
2017-Dec-11 00:01N 34°45' W 076°41'3 6.3
2017-Dec-10 23:30N 34°48' W 076°41'3 6.1
2017-Dec-10 23:01N 34°51' W 076°41'3 5.1
2017-Dec-10 22:26N 34°54' W 076°41'4 0.2
2017-Dec-09 20:09N 34°58' W 076°42'1 7.1
2017-Dec-09 20:00N 34°58' W 076°41'3 6.6
2017-Dec-09 19:30N 34°54' W 076°40'4 7.2
2017-Dec-09 19:01N 34°51' W 076°41'4 8.2
2017-Dec-09 18:30N 34°47' W 076°41'3 6.9
2017-Dec-09 18:00N 34°43' W 076°42'0 0.2
2017-Dec-09 17:30N 34°43' W 076°42'0 0.0
2017-Dec-09 17:01N 34°43' W 076°42'2 4.3
2017-Dec-09 16:30N 34°45' W 076°40'3 5.2
2017-Dec-09 16:01N 34°48' W 076°41'3 6.0
2017-Dec-09 15:30N 34°51' W 076°41'3 5.9
2017-Dec-09 14:56N 34°54' W 076°41'  
2017-Dec-04 10:11N 34°56' W 076°39'1 7.1
2017-Dec-04 10:00N 34°55' W 076°40'3 5.6
2017-Dec-04 09:30N 34°52' W 076°42'3 5.5
2017-Dec-04 09:00N 34°50' W 076°41'3 5.6
2017-Dec-04 08:31N 34°47' W 076°41'3 6.8
2017-Dec-04 08:00N 34°44' W 076°42'0 0.4
2017-Dec-04 07:31N 34°43' W 076°42'0 0.0
2017-Dec-04 07:00N 34°43' W 076°42'0 0.1
2017-Dec-04 06:31N 34°43' W 076°42'0 0.0
2017-Dec-04 06:00N 34°43' W 076°42'2 3.8
2017-Dec-04 05:31N 34°45' W 076°41'3 6.5
2017-Dec-04 05:00N 34°48' W 076°41'3 6.4
2017-Dec-04 04:30N 34°51' W 076°41'3 5.5
2017-Dec-04 04:00N 34°54' W 076°41'3 5.2
2017-Dec-04 03:28N 34°57' W 076°40'1 0.0
2017-Dec-02 03:15N 34°57' W 076°41'2 6.7
2017-Dec-02 02:57N 34°56' W 076°39'2 5.4
2017-Dec-02 02:30N 34°54' W 076°41'2 4.4
2017-Dec-02 02:01N 34°52' W 076°41'3 6.0
2017-Dec-02 01:30N 34°49' W 076°41'3 6.0
2017-Dec-02 01:00N 34°46' W 076°41'3 5.2
2017-Dec-02 00:30N 34°43' W 076°42'0 0.7
2017-Dec-02 00:01N 34°43' W 076°42'0 0.7
2017-Dec-01 23:31N 34°43' W 076°42'0 0.0
2017-Dec-01 23:00N 34°43' W 076°42'0 0.0
2017-Dec-01 22:30N 34°43' W 076°42'0 0.0
2017-Dec-01 22:01N 34°43' W 076°42'0 0.0
2017-Dec-01 21:30N 34°43' W 076°42'0 0.0
2017-Dec-01 21:01N 34°43' W 076°42'0 0.0
2017-Dec-01 20:30N 34°43' W 076°42'0 0.0
2017-Dec-01 20:00N 34°43' W 076°42'0 0.0
2017-Dec-01 19:31N 34°43' W 076°42'0 0.0
2017-Dec-01 19:00N 34°43' W 076°42'0 0.0
2017-Dec-01 18:31N 34°43' W 076°42'0 0.0
2017-Dec-01 18:01N 34°43' W 076°42'0 0.0
2017-Dec-01 17:30N 34°43' W 076°42'0 0.0
2017-Dec-01 17:00N 34°43' W 076°42'0 0.0
2017-Dec-01 16:30N 34°43' W 076°42'0 0.0
2017-Dec-01 16:00N 34°43' W 076°42'0 0.0
2017-Dec-01 15:30N 34°43' W 076°42'0 0.0
2017-Dec-01 15:00N 34°43' W 076°42'0 0.0
2017-Dec-01 14:30N 34°43' W 076°42'1 1.3
2017-Dec-01 14:00N 34°43' W 076°41'1 1.3
2017-Dec-01 13:30N 34°43' W 076°42'0 0.0
2017-Dec-01 13:00N 34°43' W 076°42'0 0.0
2017-Dec-01 12:30N 34°43' W 076°42'0 0.0
2017-Dec-01 12:00N 34°43' W 076°42'0 0.0
2017-Dec-01 11:30N 34°43' W 076°42'0 0.0
2017-Dec-01 11:00N 34°43' W 076°42'0 0.0
2017-Dec-01 10:30N 34°43' W 076°42'0 0.0
2017-Dec-01 10:00N 34°43' W 076°42'0 0.0
2017-Dec-01 09:30N 34°43' W 076°42'1 1.1
2017-Dec-01 09:00N 34°44' W 076°41'3 6.0
2017-Dec-01 08:30N 34°47' W 076°41'4 7.2
2017-Dec-01 08:00N 34°50' W 076°41'4 7.2
2017-Dec-01 07:30N 34°54' W 076°41'17 6.6
2017-Dec-01 04:52N 35°10' W 076°31'  

Dump ship's entire track history